createdAt,value
2019-05-10T00:01:16.095Z,13.20
2019-05-10T00:04:06.333Z,16.40
2019-05-10T00:06:57.036Z,11.80
2019-05-10T00:09:27.710Z,12.40
2019-05-10T00:12:14.868Z,15.40
2019-05-10T00:14:51.768Z,15.40
2019-05-10T00:17:24.604Z,15.20
2019-05-10T00:19:56.396Z,14.00
2019-05-10T00:22:28.282Z,15.40
2019-05-10T00:25:04.291Z,14.00
2019-05-10T00:27:33.593Z,15.40
2019-05-10T00:30:05.796Z,14.60
2019-05-10T00:32:37.408Z,15.80
2019-05-10T00:35:11.196Z,14.40
2019-05-10T00:37:43.395Z,17.20
2019-05-10T00:40:15.041Z,18.00
2019-05-10T00:42:46.686Z,19.80
2019-05-10T00:45:18.345Z,16.20
2019-05-10T00:47:49.680Z,19.40
2019-05-10T00:50:22.154Z,21.80
2019-05-10T00:52:53.889Z,22.20
2019-05-10T00:55:25.861Z,21.60
2019-05-10T00:57:57.911Z,22.00
2019-05-10T01:00:29.466Z,23.00
2019-05-10T01:03:01.018Z,24.00
2019-05-10T01:05:32.858Z,21.80
2019-05-10T01:08:04.807Z,20.60
2019-05-10T01:10:36.552Z,24.40
2019-05-10T01:13:08.481Z,22.00
2019-05-10T01:15:40.373Z,22.80
2019-05-10T01:18:12.198Z,22.60
2019-05-10T01:20:43.979Z,21.00
2019-05-10T01:23:15.893Z,20.00
2019-05-10T01:25:47.437Z,20.40
2019-05-10T01:28:19.639Z,21.00
2019-05-10T01:30:51.535Z,23.00
2019-05-10T01:33:23.276Z,23.00
2019-05-10T01:35:55.021Z,20.20
2019-05-10T01:38:26.890Z,21.60
2019-05-10T01:40:58.925Z,21.20
2019-05-10T01:43:30.634Z,18.60
2019-05-10T01:46:02.592Z,20.40
2019-05-10T01:48:34.314Z,17.60
2019-05-10T01:51:06.022Z,16.60
2019-05-10T01:53:37.825Z,20.00
2019-05-10T01:56:09.869Z,14.80
2019-05-10T01:58:41.752Z,18.40
2019-05-10T02:01:13.566Z,18.00
2019-05-10T02:03:45.329Z,15.60
2019-05-10T02:06:17.357Z,15.20
2019-05-10T02:08:49.124Z,16.40
2019-05-10T02:11:21.721Z,17.00
2019-05-10T02:13:53.605Z,16.20
2019-05-10T02:16:26.376Z,20.00
2019-05-10T02:18:58.085Z,21.00
2019-05-10T02:21:29.608Z,20.00
2019-05-10T02:24:01.759Z,20.60
2019-05-10T02:26:33.218Z,20.80
2019-05-10T02:29:05.324Z,20.20
2019-05-10T02:31:37.299Z,22.80
2019-05-10T02:34:10.389Z,22.40
2019-05-10T02:36:42.096Z,24.00
2019-05-10T02:39:14.086Z,22.20
2019-05-10T02:41:46.344Z,23.60
2019-05-10T02:44:18.192Z,20.60
2019-05-10T02:46:49.684Z,23.60
2019-05-10T02:49:21.857Z,21.20
2019-05-10T02:51:53.503Z,23.20
2019-05-10T02:54:25.423Z,23.20
2019-05-10T02:56:57.528Z,22.20
2019-05-10T02:59:32.705Z,26.80
2019-05-10T03:02:07.073Z,23.60
2019-05-10T03:04:39.137Z,23.40
2019-05-10T03:07:11.370Z,20.40
2019-05-10T03:09:44.910Z,23.20
2019-05-10T03:12:25.329Z,22.20
2019-05-10T03:14:58.514Z,22.80
2019-05-10T03:17:30.499Z,19.40
2019-05-10T03:20:03.003Z,22.20
2019-05-10T03:22:39.884Z,22.00
2019-05-10T03:25:11.948Z,21.00
2019-05-10T03:27:43.499Z,21.40
2019-05-10T03:30:15.853Z,21.80
2019-05-10T03:32:47.554Z,21.40
2019-05-10T03:35:19.338Z,20.60
2019-05-10T03:37:51.252Z,20.20
2019-05-10T03:40:23.284Z,19.20
2019-05-10T03:42:55.121Z,20.20
2019-05-10T03:45:26.540Z,18.40
2019-05-10T03:47:58.533Z,15.00
2019-05-10T03:50:30.360Z,15.80
2019-05-10T03:53:02.529Z,17.00
2019-05-10T03:55:34.323Z,18.80
2019-05-10T03:58:06.124Z,16.00
2019-05-10T04:00:38.159Z,15.00
2019-05-10T04:03:10.093Z,15.40
2019-05-10T04:05:41.623Z,15.00
2019-05-10T04:08:13.250Z,14.40
2019-05-10T04:10:44.889Z,12.60
2019-05-10T04:13:16.577Z,13.00
2019-05-10T04:15:48.806Z,12.20
2019-05-10T04:18:20.584Z,13.80
2019-05-10T04:20:52.444Z,15.00
2019-05-10T04:23:24.097Z,12.00
2019-05-10T04:25:55.727Z,14.60
2019-05-10T04:28:27.960Z,11.40
2019-05-10T04:30:59.858Z,13.00
2019-05-10T04:33:32.024Z,12.40
2019-05-10T04:36:03.572Z,14.80
2019-05-10T04:38:38.560Z,15.20
2019-05-10T04:41:10.613Z,14.40
2019-05-10T04:43:42.171Z,12.80
2019-05-10T04:46:14.093Z,18.20
2019-05-10T04:48:45.947Z,16.80
2019-05-10T04:51:17.805Z,19.20
2019-05-10T04:53:49.766Z,17.80
2019-05-10T04:56:21.427Z,16.60
2019-05-10T04:58:53.177Z,15.40
2019-05-10T05:01:25.405Z,15.00
2019-05-10T05:03:57.069Z,16.20
2019-05-10T05:06:29.059Z,17.00
2019-05-10T05:09:01.029Z,12.80
2019-05-10T05:11:32.916Z,13.80
2019-05-10T05:14:09.082Z,12.60
2019-05-10T05:16:38.215Z,16.40
2019-05-10T05:19:10.247Z,14.80
2019-05-10T05:21:42.232Z,15.00
2019-05-10T05:24:16.842Z,12.80
2019-05-10T05:26:47.823Z,16.20
2019-05-10T05:29:19.961Z,12.20
2019-05-10T05:31:53.995Z,12.40
2019-05-10T05:34:25.932Z,14.80
2019-05-10T05:36:57.825Z,12.40
2019-05-10T05:39:29.543Z,16.40
2019-05-10T05:42:02.327Z,12.80
2019-05-10T05:44:34.014Z,14.60
2019-05-10T05:47:05.787Z,14.40
2019-05-10T05:49:37.815Z,12.40
2019-05-10T05:52:09.391Z,12.80
2019-05-10T05:54:52.895Z,12.20
2019-05-10T05:57:27.457Z,12.00
2019-05-10T06:00:04.138Z,12.80
2019-05-10T06:02:43.971Z,13.40
2019-05-10T06:05:10.966Z,11.20
2019-05-10T06:07:52.570Z,12.00
2019-05-10T06:10:25.003Z,11.00
2019-05-10T06:13:03.312Z,12.20
2019-05-10T06:15:35.420Z,11.00
2019-05-10T06:18:10.146Z,13.60
2019-05-10T06:20:46.707Z,11.00
2019-05-10T06:23:17.952Z,14.40
2019-05-10T06:25:49.803Z,8.20
2019-05-10T06:28:26.838Z,8.40
2019-05-10T06:30:57.516Z,12.80
2019-05-10T06:33:30.913Z,15.20
2019-05-10T06:36:02.306Z,15.20
2019-05-10T06:38:34.078Z,14.00
2019-05-10T06:41:10.167Z,11.20
2019-05-10T06:43:40.622Z,15.00
2019-05-10T06:46:12.381Z,13.00
2019-05-10T06:48:45.153Z,13.20
2019-05-10T06:51:16.655Z,14.00
2019-05-10T06:53:53.595Z,16.60
2019-05-10T06:56:23.035Z,12.20
2019-05-10T06:59:12.273Z,11.00
2019-05-10T07:01:31.792Z,13.60
2019-05-10T07:04:03.315Z,10.80
2019-05-10T07:06:35.216Z,12.80
2019-05-10T07:09:14.724Z,13.60
2019-05-10T07:11:46.448Z,10.40
2019-05-10T07:14:18.166Z,12.40
2019-05-10T07:16:50.157Z,12.40
2019-05-10T07:19:21.844Z,10.40
2019-05-10T07:21:53.619Z,12.00
2019-05-10T07:24:27.101Z,13.00
2019-05-10T07:27:02.108Z,9.40
2019-05-10T07:29:43.774Z,11.80
2019-05-10T07:32:16.546Z,11.60
2019-05-10T07:34:56.069Z,9.00
2019-05-10T07:37:27.645Z,10.20
2019-05-10T07:40:09.507Z,7.00
2019-05-10T07:42:45.530Z,8.20
2019-05-10T07:45:18.730Z,10.20
2019-05-10T07:47:52.276Z,10.20
2019-05-10T07:50:34.563Z,6.40
2019-05-10T07:53:06.606Z,8.60
2019-05-10T07:55:39.860Z,8.20
2019-05-10T07:58:12.297Z,8.60
2019-05-10T08:00:45.043Z,8.80
2019-05-10T08:03:23.935Z,9.80
2019-05-10T08:06:01.800Z,8.40
2019-05-10T08:08:31.228Z,9.60
2019-05-10T08:11:03.255Z,9.20
2019-05-10T08:13:39.337Z,7.00
2019-05-10T08:16:18.915Z,9.00
2019-05-10T08:18:45.274Z,9.00
2019-05-10T08:21:22.429Z,9.60
2019-05-10T08:23:54.091Z,8.80
2019-05-10T08:26:25.926Z,8.00
2019-05-10T08:29:02.171Z,8.80
2019-05-10T08:31:40.325Z,8.00
2019-05-10T08:34:28.806Z,8.20
2019-05-10T08:36:58.699Z,6.80
2019-05-10T08:39:45.657Z,8.00
2019-05-10T08:42:32.127Z,6.80
2019-05-10T08:44:53.745Z,10.60
2019-05-10T08:47:27.683Z,10.40
2019-05-10T08:50:18.664Z,9.40
2019-05-10T08:52:35.921Z,8.20
2019-05-10T08:55:12.114Z,8.00
2019-05-10T08:57:47.765Z,9.40
2019-05-10T09:00:17.478Z,25.60
2019-05-10T09:02:49.211Z,13.60
2019-05-10T09:05:28.826Z,11.40
2019-05-10T09:08:05.624Z,7.40
2019-05-10T09:10:42.155Z,8.00
2019-05-10T09:13:23.331Z,26.40
2019-05-10T09:15:56.985Z,19.00
2019-05-10T09:18:28.888Z,11.40
2019-05-10T09:21:08.474Z,47.40
2019-05-10T09:23:35.911Z,35.40
2019-05-10T09:26:10.579Z,20.20
2019-05-10T09:28:42.141Z,15.40
2019-05-10T09:31:21.360Z,14.20
2019-05-10T09:33:49.592Z,13.40
2019-05-10T09:36:23.058Z,21.20
2019-05-10T09:38:55.483Z,14.40
2019-05-10T09:41:32.806Z,11.00
2019-05-10T09:44:03.013Z,10.20
2019-05-10T09:46:35.814Z,10.80
2019-05-10T09:49:15.530Z,11.00
2019-05-10T09:51:42.260Z,9.80
2019-05-10T09:54:14.204Z,10.80
2019-05-10T09:56:51.745Z,11.20
2019-05-10T09:59:19.113Z,8.60
2019-05-10T10:01:51.010Z,8.00
2019-05-10T10:04:22.929Z,8.80
2019-05-10T10:06:54.796Z,8.60
2019-05-10T10:09:33.852Z,8.20
2019-05-10T10:12:03.100Z,13.40
2019-05-10T10:14:39.340Z,8.00
2019-05-10T10:17:08.295Z,7.00
2019-05-10T10:19:40.739Z,8.00
2019-05-10T10:22:13.241Z,7.20
2019-05-10T10:24:48.932Z,8.40
2019-05-10T10:27:18.619Z,7.60
2019-05-10T10:29:50.358Z,6.40
2019-05-10T10:32:24.655Z,9.40
2019-05-10T10:34:57.679Z,4.60
2019-05-10T10:37:31.288Z,8.00
2019-05-10T10:40:05.379Z,7.40
2019-05-10T10:42:38.083Z,6.60
2019-05-10T10:45:10.188Z,7.20
2019-05-10T10:47:41.885Z,6.40
2019-05-10T10:50:13.907Z,7.40
2019-05-10T10:52:45.471Z,7.80
2019-05-10T10:55:18.706Z,7.80
2019-05-10T10:57:50.848Z,8.20
2019-05-10T11:00:34.772Z,6.60
2019-05-10T11:03:07.216Z,5.80
2019-05-10T11:05:38.809Z,6.60
2019-05-10T11:08:11.461Z,6.20
2019-05-10T11:10:43.163Z,7.00
2019-05-10T11:13:20.509Z,8.00
2019-05-10T11:15:48.476Z,8.00
2019-05-10T11:18:21.615Z,5.40
2019-05-10T11:20:54.192Z,7.00
2019-05-10T11:23:34.249Z,7.80
2019-05-10T11:26:01.333Z,6.40
2019-05-10T11:28:38.664Z,7.00
2019-05-10T11:31:06.826Z,6.40
2019-05-10T11:33:41.134Z,4.20
2019-05-10T11:36:11.934Z,4.80
2019-05-10T11:38:46.976Z,5.80
2019-05-10T11:41:22.054Z,6.60
2019-05-10T11:43:51.409Z,6.20
2019-05-10T11:46:23.406Z,5.40
2019-05-10T11:48:55.229Z,6.40
2019-05-10T11:51:27.166Z,5.60
2019-05-10T11:53:59.800Z,6.60
2019-05-10T11:56:32.239Z,7.00
2019-05-10T11:59:05.416Z,4.00
2019-05-10T12:01:41.466Z,8.00
2019-05-10T12:04:13.157Z,8.00
2019-05-10T12:06:49.889Z,8.60
2019-05-10T12:09:18.162Z,8.80
2019-05-10T12:11:56.455Z,7.40
2019-05-10T12:14:23.342Z,7.00
2019-05-10T12:16:54.954Z,9.00
2019-05-10T12:19:26.429Z,7.00
2019-05-10T12:21:58.461Z,7.40
2019-05-10T12:24:45.281Z,7.80
2019-05-10T12:27:18.590Z,9.00
2019-05-10T12:29:37.466Z,6.40
2019-05-10T12:32:10.420Z,8.60
2019-05-10T12:34:46.020Z,6.20
2019-05-10T12:37:15.784Z,8.00
2019-05-10T12:42:25.357Z,9.60
2019-05-10T12:44:57.018Z,9.00
2019-05-10T12:47:30.969Z,9.00
2019-05-10T12:50:03.531Z,8.60
2019-05-10T12:52:35.653Z,7.00
2019-05-10T12:55:08.126Z,7.20
2019-05-10T12:57:43.168Z,10.00
2019-05-10T13:00:16.007Z,8.20
2019-05-10T13:02:51.860Z,7.60
2019-05-10T13:05:31.297Z,10.40
2019-05-10T13:07:55.055Z,10.40
2019-05-10T13:10:26.840Z,8.80
2019-05-10T13:12:58.714Z,9.00
2019-05-10T13:15:31.539Z,12.20
2019-05-10T13:18:04.101Z,12.60
2019-05-10T13:20:36.716Z,14.60
2019-05-10T13:23:10.155Z,14.20
2019-05-10T13:25:44.139Z,17.20
2019-05-10T13:28:15.663Z,14.20
2019-05-10T13:30:47.307Z,13.80
2019-05-10T13:33:28.694Z,17.80
2019-05-10T13:35:56.658Z,11.40
2019-05-10T13:38:25.738Z,19.40
2019-05-10T13:40:57.634Z,19.00
2019-05-10T13:43:29.121Z,16.20
2019-05-10T13:46:00.642Z,18.20
2019-05-10T13:48:32.455Z,19.00
2019-05-10T13:51:03.855Z,17.80
2019-05-10T13:53:37.240Z,18.80
2019-05-10T13:56:09.436Z,18.20
2019-05-10T13:58:41.230Z,18.20
2019-05-10T14:01:14.696Z,19.00
2019-05-10T14:03:53.723Z,20.20
2019-05-10T14:06:19.554Z,16.40
2019-05-10T14:08:52.278Z,20.40
2019-05-10T14:11:23.855Z,16.60
2019-05-10T14:13:55.669Z,20.60
2019-05-10T14:16:27.368Z,19.00
2019-05-10T14:18:59.052Z,20.00
2019-05-10T14:21:30.571Z,19.40
2019-05-10T14:24:02.263Z,16.00
2019-05-10T14:26:34.334Z,18.60
2019-05-10T14:29:05.903Z,19.00
2019-05-10T14:31:37.635Z,20.20
2019-05-10T14:34:16.205Z,21.00
2019-05-10T14:36:43.529Z,19.40
2019-05-10T14:39:15.233Z,21.80
2019-05-10T14:41:50.714Z,19.20
2019-05-10T14:44:20.506Z,21.40
2019-05-10T14:46:51.850Z,20.80
2019-05-10T14:49:23.204Z,19.00
2019-05-10T14:51:59.019Z,21.00
2019-05-10T14:54:42.293Z,20.00
2019-05-10T14:57:01.847Z,20.40
2019-05-10T14:59:33.567Z,20.80
2019-05-10T15:02:05.179Z,20.60
2019-05-10T15:04:46.422Z,19.60
2019-05-10T15:07:14.494Z,19.00
2019-05-10T15:09:43.779Z,19.40
2019-05-10T15:12:16.368Z,17.60
2019-05-10T15:14:48.871Z,20.60
2019-05-10T15:17:20.621Z,20.00
2019-05-10T15:19:57.380Z,21.00
2019-05-10T15:22:25.977Z,19.00
2019-05-10T15:24:57.688Z,17.40
2019-05-10T15:27:29.555Z,19.60
2019-05-10T15:30:05.194Z,20.80
2019-05-10T15:32:34.032Z,17.80
2019-05-10T15:35:09.012Z,17.60
2019-05-10T15:37:45.487Z,14.00
2019-05-10T15:40:14.490Z,15.00
2019-05-10T15:42:45.961Z,13.80
2019-05-10T15:45:19.489Z,15.20
2019-05-10T15:47:52.325Z,13.00
2019-05-10T15:50:24.939Z,12.40
2019-05-10T15:52:56.684Z,9.60
2019-05-10T15:55:28.901Z,10.00
2019-05-10T15:58:01.577Z,13.80
2019-05-10T16:00:39.202Z,13.40
2019-05-10T16:03:07.094Z,12.60
2019-05-10T16:05:43.586Z,12.80
2019-05-10T16:08:13.750Z,10.00
2019-05-10T16:10:46.282Z,12.80
2019-05-10T16:13:23.427Z,14.20
2019-05-10T16:15:51.639Z,12.40
2019-05-10T16:18:23.990Z,11.80
2019-05-10T16:20:55.515Z,13.40
2019-05-10T16:23:26.980Z,9.40
2019-05-10T16:25:58.650Z,10.00
2019-05-10T16:28:30.740Z,11.40
2019-05-10T16:31:02.391Z,10.00
2019-05-10T16:33:33.813Z,11.20
2019-05-10T16:36:08.270Z,10.80
2019-05-10T16:38:38.863Z,11.60
2019-05-10T16:41:10.242Z,11.20
2019-05-10T16:43:41.792Z,10.40
2019-05-10T16:46:13.266Z,12.00
2019-05-10T16:48:44.837Z,12.20
2019-05-10T16:51:16.452Z,10.20
2019-05-10T16:53:47.919Z,9.00
2019-05-10T16:56:21.241Z,9.80
2019-05-10T16:58:58.943Z,9.60
2019-05-10T17:01:29.100Z,9.80
2019-05-10T17:04:01.843Z,13.40
2019-05-10T17:06:35.330Z,13.80
2019-05-10T17:09:27.774Z,14.00
2019-05-10T17:11:59.392Z,14.00
2019-05-10T17:14:30.968Z,10.60
2019-05-10T17:17:02.603Z,11.00
2019-05-10T17:19:36.105Z,12.20
2019-05-10T17:22:07.895Z,12.20
2019-05-10T17:24:39.296Z,10.20
2019-05-10T17:27:10.979Z,12.40
2019-05-10T17:29:44.650Z,11.80
2019-05-10T17:32:18.548Z,9.40
2019-05-10T17:34:49.630Z,12.00
2019-05-10T17:37:21.225Z,9.20
2019-05-10T17:39:53.746Z,12.20
2019-05-10T17:42:25.535Z,12.80
2019-05-10T17:45:01.805Z,12.60
2019-05-10T17:47:32.359Z,14.80
2019-05-10T17:50:11.568Z,14.60
2019-05-10T17:52:43.412Z,15.80
2019-05-10T17:55:16.760Z,15.00
2019-05-10T17:57:54.351Z,17.60
2019-05-10T18:00:42.666Z,19.20
2019-05-10T18:03:14.212Z,19.20
2019-05-10T18:05:46.688Z,18.40
2019-05-10T18:08:19.370Z,19.40
2019-05-10T18:10:51.113Z,22.20
2019-05-10T18:13:22.464Z,21.40
2019-05-10T18:15:55.021Z,23.40
2019-05-10T18:18:26.687Z,26.60
2019-05-10T18:21:00.702Z,27.80
2019-05-10T18:23:32.564Z,27.20
2019-05-10T18:26:04.126Z,29.00
2019-05-10T18:28:36.831Z,29.60
2019-05-10T18:31:08.905Z,28.00
2019-05-10T18:33:44.260Z,30.20
2019-05-10T18:36:13.965Z,31.00
2019-05-10T18:38:45.607Z,30.00
2019-05-10T18:41:17.356Z,30.40
2019-05-10T18:43:48.820Z,30.20
2019-05-10T18:46:20.437Z,31.00
2019-05-10T18:48:51.814Z,32.20
2019-05-10T18:51:24.545Z,31.00
2019-05-10T18:53:57.858Z,33.00
2019-05-10T18:56:31.425Z,33.00
2019-05-10T18:59:07.542Z,33.20
2019-05-10T19:01:38.647Z,35.00
2019-05-10T19:04:14.029Z,33.20
2019-05-10T19:06:49.561Z,35.20
2019-05-10T19:09:17.527Z,36.80
2019-05-10T19:11:49.399Z,35.00
2019-05-10T19:14:23.944Z,35.00
2019-05-10T19:16:54.136Z,34.60
2019-05-10T19:19:25.858Z,34.60
2019-05-10T19:21:57.724Z,30.40
2019-05-10T19:24:30.494Z,34.20
2019-05-10T19:27:07.304Z,35.00
2019-05-10T19:29:38.876Z,36.00
2019-05-10T19:32:11.651Z,34.40
2019-05-10T19:34:42.465Z,35.80
2019-05-10T19:37:28.451Z,35.00
2019-05-10T19:39:48.075Z,34.20
2019-05-10T19:42:22.495Z,36.20
2019-05-10T19:44:53.999Z,35.00
2019-05-10T19:47:25.979Z,36.60
2019-05-10T19:49:57.579Z,34.20
2019-05-10T19:52:29.120Z,33.80
2019-05-10T19:55:01.685Z,37.60
2019-05-10T19:57:33.406Z,35.00
2019-05-10T20:00:04.918Z,38.20
2019-05-10T20:02:36.454Z,38.60
2019-05-10T20:05:11.212Z,33.40
2019-05-10T20:07:46.244Z,41.80
2019-05-10T20:10:16.362Z,39.80
2019-05-10T20:12:47.955Z,39.80
2019-05-10T20:15:21.398Z,38.80
2019-05-10T20:17:53.133Z,35.20
2019-05-10T20:20:24.492Z,41.00
2019-05-10T20:22:55.808Z,38.20
2019-05-10T20:25:27.417Z,39.80
2019-05-10T20:27:59.123Z,36.20
2019-05-10T20:30:30.635Z,43.20
2019-05-10T20:33:02.450Z,42.60
2019-05-10T20:35:34.269Z,40.00
2019-05-10T20:38:05.815Z,40.60
2019-05-10T20:40:37.714Z,42.00
2019-05-10T20:43:09.404Z,41.80
2019-05-10T20:45:40.968Z,40.60
2019-05-10T20:48:12.573Z,43.80
2019-05-10T20:50:44.121Z,45.00
2019-05-10T20:53:15.522Z,44.40
2019-05-10T20:55:47.377Z,44.20
2019-05-10T20:58:20.915Z,44.80
2019-05-10T21:00:52.686Z,45.40
2019-05-10T21:03:24.326Z,38.40
2019-05-10T21:05:56.158Z,44.00
2019-05-10T21:08:27.926Z,42.60
2019-05-10T21:10:59.622Z,45.60
2019-05-10T21:13:31.290Z,46.80
2019-05-10T21:16:03.056Z,47.00
2019-05-10T21:18:37.951Z,46.20
2019-05-10T21:21:09.760Z,48.00
2019-05-10T21:23:41.348Z,48.20
2019-05-10T21:26:13.854Z,49.60
2019-05-10T21:28:45.795Z,49.20
2019-05-10T21:31:19.810Z,46.80
2019-05-10T21:34:07.528Z,47.20
2019-05-10T21:36:27.343Z,46.60
2019-05-10T21:38:59.234Z,48.80
2019-05-10T21:41:31.288Z,49.80
2019-05-10T21:44:03.342Z,46.80
2019-05-10T21:46:35.135Z,49.00
2019-05-10T21:49:06.848Z,44.40
2019-05-10T21:51:39.468Z,49.00
2019-05-10T21:54:12.395Z,48.20
2019-05-10T21:56:44.105Z,51.20
2019-05-10T21:59:16.017Z,45.80
2019-05-10T22:01:47.662Z,51.20
2019-05-10T22:04:19.212Z,49.20
2019-05-10T22:06:50.654Z,52.40
2019-05-10T22:09:22.398Z,45.40
2019-05-10T22:11:54.039Z,47.20
2019-05-10T22:14:25.565Z,49.00
2019-05-10T22:16:56.888Z,50.00
2019-05-10T22:19:28.562Z,53.60
2019-05-10T22:22:00.295Z,50.80
2019-05-10T22:24:32.091Z,47.80
2019-05-10T22:27:04.988Z,53.60
2019-05-10T22:29:36.704Z,47.40
2019-05-10T22:32:08.273Z,49.00
2019-05-10T22:34:41.814Z,50.20
2019-05-10T22:37:13.573Z,51.80
2019-05-10T22:39:44.935Z,51.60
2019-05-10T22:42:16.428Z,49.40
2019-05-10T22:44:48.080Z,51.20
2019-05-10T22:47:19.742Z,50.40
2019-05-10T22:49:51.290Z,48.80
2019-05-10T22:52:22.885Z,48.60
2019-05-10T22:54:54.622Z,45.40
2019-05-10T22:57:26.318Z,45.20
2019-05-10T22:59:58.313Z,50.40
2019-05-10T23:02:29.659Z,51.20
2019-05-10T23:05:01.366Z,49.80
2019-05-10T23:07:33.220Z,54.00
2019-05-10T23:10:06.068Z,51.80
2019-05-10T23:12:38.154Z,53.00
2019-05-10T23:15:10.583Z,53.20
2019-05-10T23:17:42.223Z,50.00
2019-05-10T23:20:14.406Z,48.20
2019-05-10T23:22:46.298Z,47.80
2019-05-10T23:25:17.912Z,51.80
2019-05-10T23:27:49.618Z,49.60
2019-05-10T23:30:21.248Z,51.60
2019-05-10T23:32:52.851Z,53.40
2019-05-10T23:35:24.625Z,51.80
2019-05-10T23:37:56.212Z,53.00
2019-05-10T23:40:28.051Z,53.20
2019-05-10T23:42:59.618Z,43.20
2019-05-10T23:45:31.472Z,46.80
2019-05-10T23:48:03.095Z,49.60
2019-05-10T23:50:35.284Z,51.20
2019-05-10T23:53:06.957Z,52.80
2019-05-10T23:55:38.795Z,54.60
2019-05-10T23:58:10.338Z,53.40
